Goodland, Texas
Current Conditions -  °F | °C
As of 11:55 PM on Saturday 22 Nov 2014 (Local Time) from KCVN Reporting Station
Clear Clear  
Wind Chill: 52°   Ceiling: Unl
Heat Index: 52°   Visibility: 10mi
Dew Point: 19°   Wind: 23mph
Humidity: 28%   Direction: 250°WSW
Pressure: 29.66"   Gusts: 29mph
Location:  34.1266°N, 102.525°W
Report Text: KCVN 230555Z 25020G25KT 10SM CLR 11/M07 A2966 RMK AO1 10150 20040 57027
Loading
Personal Weather Stations






























Interactive Weather Map New forecast layout! Learn more

10-Day Weather Forecast

Advertisements
Track Severe Weather on mobile